createdAt,value
2022-09-16T00:01:13.748Z,12.00
2022-09-16T00:03:41.976Z,12.00
2022-09-16T00:06:19.934Z,12.00
2022-09-16T00:08:48.434Z,12.00
2022-09-16T00:11:17.105Z,12.00
2022-09-16T00:13:47.240Z,12.00
2022-09-16T00:16:21.995Z,11.90
2022-09-16T00:18:50.431Z,11.90
2022-09-16T00:21:18.636Z,11.90
2022-09-16T00:23:46.638Z,11.90
2022-09-16T00:26:14.986Z,11.90
2022-09-16T00:28:43.028Z,11.80
2022-09-16T00:31:12.443Z,11.80
2022-09-16T00:33:40.587Z,11.80
2022-09-16T00:36:10.847Z,11.70
2022-09-16T00:38:39.185Z,11.70
2022-09-16T00:41:07.767Z,11.70
2022-09-16T00:43:51.069Z,11.70
2022-09-16T00:46:27.837Z,11.70
2022-09-16T00:48:56.221Z,11.70
2022-09-16T00:51:25.417Z,11.70
2022-09-16T00:53:57.522Z,11.60
2022-09-16T00:56:29.694Z,11.60
2022-09-16T00:59:04.462Z,11.60
2022-09-16T01:01:34.878Z,11.60
2022-09-16T01:04:07.905Z,11.50
2022-09-16T01:06:40.034Z,11.50
2022-09-16T01:09:08.403Z,11.50
2022-09-16T01:11:36.977Z,11.50
2022-09-16T01:14:24.380Z,11.50
2022-09-16T01:17:01.290Z,11.50
2022-09-16T01:19:46.221Z,11.50
2022-09-16T01:22:34.019Z,11.50
2022-09-16T01:25:13.415Z,11.50
2022-09-16T01:28:15.832Z,11.40
2022-09-16T01:30:56.386Z,11.40
2022-09-16T01:33:38.087Z,11.50
2022-09-16T01:36:24.482Z,11.40
2022-09-16T01:39:10.540Z,11.40
2022-09-16T01:41:48.460Z,11.40
2022-09-16T01:44:27.928Z,11.40
2022-09-16T01:47:04.381Z,11.50
2022-09-16T01:49:44.380Z,11.50
2022-09-16T01:52:23.906Z,11.50
2022-09-16T01:54:57.705Z,11.50
2022-09-16T01:57:33.604Z,11.50
2022-09-16T02:00:08.101Z,11.50
2022-09-16T02:02:41.914Z,11.50
2022-09-16T02:05:16.129Z,11.50
2022-09-16T02:07:51.346Z,11.60
2022-09-16T02:10:24.557Z,11.60
2022-09-16T02:12:55.753Z,11.50
2022-09-16T02:15:27.637Z,11.50
2022-09-16T02:18:02.303Z,11.50
2022-09-16T02:20:32.847Z,11.50
2022-09-16T02:23:06.159Z,11.50
2022-09-16T02:25:37.690Z,11.50
2022-09-16T02:28:13.169Z,11.50
2022-09-16T02:30:46.894Z,11.50
2022-09-16T02:33:18.754Z,11.50
2022-09-16T02:35:50.287Z,11.50
2022-09-16T02:38:22.577Z,11.50
2022-09-16T02:40:55.446Z,11.50
2022-09-16T02:43:24.263Z,11.40
2022-09-16T02:45:59.616Z,11.40
2022-09-16T02:48:37.083Z,11.40
2022-09-16T02:51:13.056Z,11.40
2022-09-16T02:53:49.265Z,11.40
2022-09-16T02:56:23.520Z,11.30
2022-09-16T02:58:52.428Z,11.30
2022-09-16T03:01:21.851Z,11.30
2022-09-16T03:03:52.174Z,11.30
2022-09-16T03:06:22.605Z,11.30
2022-09-16T03:08:53.185Z,11.20
2022-09-16T03:11:47.761Z,11.10
2022-09-16T03:14:31.943Z,11.10
2022-09-16T03:17:09.257Z,11.10
2022-09-16T03:19:47.577Z,11.10
2022-09-16T03:22:25.140Z,11.10
2022-09-16T03:25:00.378Z,11.10
2022-09-16T03:27:33.807Z,11.00
2022-09-16T03:30:06.218Z,11.00
2022-09-16T03:32:37.539Z,11.00
2022-09-16T03:35:13.813Z,11.00
2022-09-16T03:37:43.772Z,10.90
2022-09-16T03:40:15.771Z,10.90
2022-09-16T03:42:45.080Z,10.90
2022-09-16T03:45:17.806Z,10.90
2022-09-16T03:47:47.832Z,10.90
2022-09-16T03:50:17.446Z,10.90
2022-09-16T03:52:45.889Z,10.90
2022-09-16T03:55:15.855Z,10.90
2022-09-16T03:57:43.933Z,10.90
2022-09-16T04:00:14.065Z,10.90
2022-09-16T04:02:42.133Z,10.90
2022-09-16T04:05:10.904Z,10.90
2022-09-16T04:07:40.270Z,10.90
2022-09-16T04:10:11.980Z,11.00
2022-09-16T04:12:40.105Z,11.00
2022-09-16T04:15:09.062Z,11.00
2022-09-16T04:17:37.315Z,11.00
2022-09-16T04:20:05.973Z,11.10
2022-09-16T04:22:34.043Z,11.00
2022-09-16T04:25:04.650Z,11.00
2022-09-16T04:27:33.135Z,11.10
2022-09-16T04:30:01.139Z,11.10
2022-09-16T04:32:29.592Z,11.10
2022-09-16T04:34:57.979Z,11.10
2022-09-16T04:37:26.016Z,11.00
2022-09-16T04:39:54.082Z,11.00
2022-09-16T04:42:23.730Z,11.00
2022-09-16T04:44:51.762Z,10.90
2022-09-16T04:47:19.842Z,10.90
2022-09-16T04:49:47.895Z,10.90
2022-09-16T04:52:15.984Z,10.90
2022-09-16T04:54:44.065Z,10.90
2022-09-16T04:57:12.100Z,10.90
2022-09-16T04:59:41.570Z,10.90
2022-09-16T05:02:09.825Z,10.80
2022-09-16T05:04:37.838Z,10.80
2022-09-16T05:07:06.133Z,10.80
2022-09-16T05:09:34.520Z,10.80
2022-09-16T05:12:02.870Z,10.90
2022-09-16T05:14:31.101Z,10.90
2022-09-16T05:17:01.338Z,11.00
2022-09-16T05:19:29.584Z,10.90
2022-09-16T05:21:58.017Z,10.90
2022-09-16T05:24:26.373Z,10.90
2022-09-16T05:26:54.444Z,11.10
2022-09-16T05:29:22.825Z,11.10
2022-09-16T05:31:51.149Z,11.10
2022-09-16T05:34:23.234Z,11.10
2022-09-16T05:36:54.229Z,11.20
2022-09-16T05:39:24.608Z,11.60
2022-09-16T05:41:56.701Z,11.70
2022-09-16T05:44:25.178Z,12.00
2022-09-16T05:46:53.379Z,12.10
2022-09-16T05:49:23.964Z,12.50
2022-09-16T05:51:53.175Z,12.30
2022-09-16T05:54:23.952Z,12.50
2022-09-16T05:56:52.662Z,12.40
2022-09-16T05:59:20.891Z,12.20
2022-09-16T06:01:49.044Z,12.20
2022-09-16T06:04:17.566Z,12.20
2022-09-16T06:06:48.322Z,12.10
2022-09-16T06:09:18.058Z,12.10
2022-09-16T06:11:47.569Z,12.10
2022-09-16T06:14:16.916Z,12.10
2022-09-16T06:16:45.794Z,12.20
2022-09-16T06:19:15.531Z,12.90
2022-09-16T06:21:44.799Z,13.10
2022-09-16T06:24:15.998Z,14.10
2022-09-16T06:26:45.745Z,14.30
2022-09-16T06:29:14.515Z,14.50
2022-09-16T06:31:43.144Z,14.00
2022-09-16T06:34:16.104Z,14.00
2022-09-16T06:36:45.580Z,14.60
2022-09-16T06:39:17.364Z,14.40
2022-09-16T06:41:46.073Z,14.50
2022-09-16T06:44:14.327Z,14.50
2022-09-16T06:46:42.723Z,14.80
2022-09-16T06:49:13.142Z,15.60
2022-09-16T06:51:41.787Z,16.10
2022-09-16T06:54:12.106Z,16.20
2022-09-16T06:56:41.722Z,15.20
2022-09-16T06:59:10.726Z,14.60
2022-09-16T07:01:39.404Z,14.70
2022-09-16T07:04:13.229Z,14.70
2022-09-16T07:07:08.130Z,15.80
2022-09-16T07:09:30.598Z,16.50
2022-09-16T07:12:00.847Z,16.60
2022-09-16T07:14:29.702Z,16.60
2022-09-16T07:16:57.820Z,16.70
2022-09-16T07:19:26.644Z,15.90
2022-09-16T07:21:55.675Z,15.80
2022-09-16T07:24:23.685Z,15.70
2022-09-16T07:26:52.079Z,16.30
2022-09-16T07:29:22.075Z,17.70
2022-09-16T07:31:50.117Z,17.90
2022-09-16T07:34:18.523Z,16.80
2022-09-16T07:36:48.428Z,17.20
2022-09-16T07:39:18.848Z,19.30
2022-09-16T07:41:49.055Z,18.30
2022-09-16T07:44:19.198Z,17.60
2022-09-16T07:46:51.270Z,18.50
2022-09-16T07:49:20.319Z,19.40
2022-09-16T07:51:49.301Z,18.30
2022-09-16T07:54:18.912Z,17.00
2022-09-16T07:56:47.059Z,18.20
2022-09-16T07:59:19.088Z,18.70
2022-09-16T08:01:49.910Z,20.10
2022-09-16T08:04:19.511Z,18.50
2022-09-16T08:06:48.042Z,17.70
2022-09-16T08:12:06.364Z,19.00
2022-09-16T08:14:35.002Z,19.70
2022-09-16T08:17:04.732Z,19.30
2022-09-16T08:19:32.859Z,18.90
2022-09-16T08:22:01.328Z,18.10
2022-09-16T08:24:29.328Z,19.30
2022-09-16T08:26:58.015Z,19.10
2022-09-16T08:29:26.240Z,18.70
2022-09-16T08:31:54.406Z,18.60
2022-09-16T08:34:24.404Z,19.20
2022-09-16T08:36:52.674Z,17.90
2022-09-16T08:39:21.735Z,18.40
2022-09-16T08:42:25.522Z,18.30
2022-09-16T08:45:02.121Z,18.00
2022-09-16T08:47:42.183Z,18.00
2022-09-16T08:50:18.403Z,17.90
2022-09-16T08:52:48.038Z,18.20
2022-09-16T08:55:20.342Z,17.80
2022-09-16T08:57:56.086Z,17.70
2022-09-16T09:00:24.760Z,18.20
2022-09-16T09:02:56.551Z,17.80
2022-09-16T09:05:35.230Z,18.10
2022-09-16T09:08:26.833Z,17.80
2022-09-16T09:11:01.883Z,17.80
2022-09-16T09:13:57.235Z,18.20
2022-09-16T09:16:34.935Z,18.20
2022-09-16T09:19:24.451Z,17.80
2022-09-16T09:22:03.659Z,18.00
2022-09-16T09:24:44.206Z,17.90
2022-09-16T09:27:17.442Z,18.00
2022-09-16T09:29:58.927Z,18.30
2022-09-16T09:32:48.450Z,18.80
2022-09-16T09:35:29.570Z,18.80
2022-09-16T09:38:33.096Z,19.00
2022-09-16T09:41:09.266Z,18.30
2022-09-16T09:43:43.315Z,18.30
2022-09-16T09:46:15.289Z,18.20
2022-09-16T09:48:47.493Z,18.10
2022-09-16T09:51:24.130Z,18.30
2022-09-16T09:53:56.080Z,18.00
2022-09-16T09:56:30.066Z,18.40
2022-09-16T09:59:07.569Z,18.10
2022-09-16T10:01:36.219Z,18.00
2022-09-16T10:04:07.417Z,17.70
2022-09-16T10:06:36.756Z,17.70
2022-09-16T10:09:05.097Z,17.70
2022-09-16T10:11:34.743Z,17.70
2022-09-16T10:14:05.828Z,17.80
2022-09-16T10:16:37.362Z,18.20
2022-09-16T10:19:09.018Z,18.10
2022-09-16T10:21:48.075Z,18.50
2022-09-16T10:24:34.387Z,18.40
2022-09-16T10:27:21.412Z,18.80
2022-09-16T10:29:49.929Z,18.90
2022-09-16T10:32:20.600Z,19.00
2022-09-16T10:34:49.261Z,19.00
2022-09-16T10:37:20.207Z,18.80
2022-09-16T10:39:57.040Z,18.40
2022-09-16T10:42:29.075Z,18.70
2022-09-16T10:45:16.016Z,19.40
2022-09-16T10:47:51.175Z,19.40
2022-09-16T10:50:20.731Z,19.20
2022-09-16T10:52:50.209Z,19.20
2022-09-16T10:55:29.807Z,19.40
2022-09-16T10:58:10.767Z,19.40
2022-09-16T11:00:48.818Z,19.60
2022-09-16T11:04:11.286Z,19.20
2022-09-16T11:06:51.057Z,19.90
2022-09-16T11:09:30.883Z,20.30
2022-09-16T11:12:29.003Z,19.90
2022-09-16T11:15:06.154Z,19.40
2022-09-16T11:17:47.216Z,19.30
2022-09-16T11:20:40.569Z,19.50
2022-09-16T11:23:21.494Z,19.40
2022-09-16T11:25:58.114Z,19.50
2022-09-16T11:29:10.412Z,19.80
2022-09-16T11:31:53.771Z,20.00
2022-09-16T11:34:41.129Z,20.00
2022-09-16T11:37:17.710Z,20.50
2022-09-16T11:40:08.308Z,20.10
2022-09-16T11:42:41.306Z,20.30
2022-09-16T11:45:22.812Z,20.10
2022-09-16T11:48:08.206Z,19.90
2022-09-16T11:50:47.670Z,20.20
2022-09-16T11:53:54.624Z,20.70
2022-09-16T11:56:32.743Z,20.60
2022-09-16T11:59:06.631Z,20.40
2022-09-16T12:01:43.148Z,19.40
2022-09-16T12:04:17.847Z,19.40
2022-09-16T12:06:57.311Z,19.40
2022-09-16T12:09:39.663Z,19.70
2022-09-16T12:12:13.491Z,19.80
2022-09-16T12:14:45.015Z,19.80
2022-09-16T12:17:18.636Z,20.00
2022-09-16T12:19:54.072Z,20.00
2022-09-16T12:22:25.112Z,19.90
2022-09-16T12:25:00.770Z,20.00
2022-09-16T12:27:40.965Z,20.00
2022-09-16T12:30:17.731Z,20.00
2022-09-16T12:32:57.000Z,20.00
2022-09-16T12:38:01.168Z,20.20
2022-09-16T12:40:34.478Z,20.30
2022-09-16T12:43:41.170Z,19.70
2022-09-16T12:46:34.418Z,20.50
2022-09-16T12:49:30.339Z,20.40
2022-09-16T12:52:20.099Z,20.10
2022-09-16T12:55:24.287Z,19.90
2022-09-16T12:58:10.305Z,19.40
2022-09-16T13:00:43.376Z,19.90
2022-09-16T13:03:16.855Z,20.30
2022-09-16T13:05:50.448Z,20.00
2022-09-16T13:08:24.702Z,19.70
2022-09-16T13:11:25.545Z,19.70
2022-09-16T13:13:49.999Z,19.40
2022-09-16T13:16:30.581Z,19.30
2022-09-16T13:19:35.454Z,19.90
2022-09-16T13:22:19.547Z,19.70
2022-09-16T13:24:54.585Z,19.90
2022-09-16T13:27:32.747Z,19.80
2022-09-16T13:30:27.243Z,20.10
2022-09-16T13:33:02.152Z,19.70
2022-09-16T13:35:40.691Z,19.30
2022-09-16T13:38:36.416Z,19.10
2022-09-16T13:41:07.227Z,18.50
2022-09-16T13:43:38.780Z,18.20
2022-09-16T13:46:16.190Z,18.20
2022-09-16T13:48:47.625Z,18.20
2022-09-16T13:51:19.432Z,18.20
2022-09-16T13:53:50.410Z,18.10
2022-09-16T13:56:49.081Z,18.00
2022-09-16T13:59:30.734Z,18.00
2022-09-16T14:02:09.178Z,18.20
2022-09-16T14:04:55.352Z,18.40
2022-09-16T14:07:33.788Z,18.10
2022-09-16T14:10:09.427Z,18.30
2022-09-16T14:12:50.936Z,18.40
2022-09-16T14:15:21.074Z,18.40
2022-09-16T14:17:52.959Z,18.40
2022-09-16T14:20:24.187Z,18.60
2022-09-16T14:23:02.538Z,18.60
2022-09-16T14:25:36.313Z,18.50
2022-09-16T14:28:19.532Z,18.60
2022-09-16T14:30:50.586Z,18.50
2022-09-16T14:33:23.386Z,18.60
2022-09-16T14:35:53.772Z,18.90
2022-09-16T14:39:07.086Z,18.60
2022-09-16T14:41:29.390Z,18.50
2022-09-16T14:44:11.850Z,18.50
2022-09-16T14:46:45.831Z,18.50
2022-09-16T14:49:16.216Z,18.50
2022-09-16T14:51:48.410Z,18.80
2022-09-16T14:54:21.438Z,18.70
2022-09-16T14:56:57.691Z,18.80
2022-09-16T14:59:29.627Z,18.60
2022-09-16T15:02:01.645Z,18.80
2022-09-16T15:04:34.864Z,18.40
2022-09-16T15:07:12.484Z,18.30
2022-09-16T15:09:48.767Z,18.10
2022-09-16T15:12:24.579Z,18.40
2022-09-16T15:14:55.610Z,18.10
2022-09-16T15:18:01.145Z,18.20
2022-09-16T15:20:34.838Z,18.20
2022-09-16T15:23:04.260Z,18.10
2022-09-16T15:25:34.999Z,18.20
2022-09-16T15:28:07.698Z,18.20
2022-09-16T15:30:48.046Z,17.90
2022-09-16T15:33:31.273Z,18.10
2022-09-16T15:36:03.253Z,18.10
2022-09-16T15:38:32.793Z,17.70
2022-09-16T15:41:06.022Z,17.70
2022-09-16T15:43:40.371Z,17.90
2022-09-16T15:46:18.193Z,17.60
2022-09-16T15:48:48.886Z,17.40
2022-09-16T15:51:29.323Z,17.10
2022-09-16T15:54:24.951Z,17.00
2022-09-16T15:57:02.212Z,17.10
2022-09-16T15:59:35.052Z,17.00
2022-09-16T16:02:19.748Z,16.90
2022-09-16T16:04:48.547Z,16.80
2022-09-16T16:07:41.571Z,16.90
2022-09-16T16:10:17.358Z,17.00
2022-09-16T16:12:47.947Z,16.80
2022-09-16T16:15:18.246Z,16.50
2022-09-16T16:17:49.637Z,16.80
2022-09-16T16:20:18.688Z,16.40
2022-09-16T16:22:49.152Z,16.50
2022-09-16T16:25:18.371Z,16.60
2022-09-16T16:27:46.969Z,16.30
2022-09-16T16:30:15.116Z,16.30
2022-09-16T16:32:43.547Z,16.30
2022-09-16T16:35:13.812Z,16.20
2022-09-16T16:37:46.887Z,16.40
2022-09-16T16:40:16.519Z,16.30
2022-09-16T16:42:45.141Z,16.00
2022-09-16T16:45:13.908Z,15.80
2022-09-16T16:47:42.968Z,15.80
2022-09-16T16:50:13.186Z,15.80
2022-09-16T16:52:41.774Z,15.80
2022-09-16T16:55:11.434Z,15.60
2022-09-16T16:57:39.801Z,15.70
2022-09-16T17:00:13.025Z,15.70
2022-09-16T17:02:41.610Z,15.60
2022-09-16T17:05:10.903Z,15.70
2022-09-16T17:07:49.465Z,15.40
2022-09-16T17:10:17.986Z,15.40
2022-09-16T17:12:47.028Z,15.30
2022-09-16T17:15:16.732Z,15.20
2022-09-16T17:17:46.265Z,15.10
2022-09-16T17:20:16.666Z,14.80
2022-09-16T17:22:46.640Z,14.80
2022-09-16T17:25:28.565Z,14.70
2022-09-16T17:27:57.981Z,14.60
2022-09-16T17:30:26.397Z,14.60
2022-09-16T17:32:55.279Z,14.50
2022-09-16T17:35:24.004Z,14.40
2022-09-16T17:37:53.715Z,14.20
2022-09-16T17:40:22.282Z,14.30
2022-09-16T17:42:52.929Z,14.00
2022-09-16T17:45:21.400Z,13.90
2022-09-16T17:47:50.921Z,13.80
2022-09-16T17:50:23.019Z,13.90
2022-09-16T17:52:51.696Z,13.90
2022-09-16T17:55:27.033Z,13.70
2022-09-16T17:57:55.383Z,13.60
2022-09-16T18:00:24.248Z,13.50
2022-09-16T18:02:56.093Z,13.60
2022-09-16T18:05:29.299Z,13.50
2022-09-16T18:07:58.951Z,13.50
2022-09-16T18:10:29.887Z,13.50
2022-09-16T18:12:59.388Z,13.60
2022-09-16T18:15:28.857Z,13.40
2022-09-16T18:17:57.938Z,13.40
2022-09-16T18:20:27.893Z,13.20
2022-09-16T18:22:56.361Z,13.20
2022-09-16T18:25:39.071Z,13.20
2022-09-16T18:28:08.663Z,13.20
2022-09-16T18:30:37.544Z,13.20
2022-09-16T18:33:06.097Z,13.20
2022-09-16T18:35:37.262Z,13.10
2022-09-16T18:38:09.529Z,13.10
2022-09-16T18:40:39.596Z,13.00
2022-09-16T18:43:09.477Z,13.00
2022-09-16T18:45:38.074Z,12.80
2022-09-16T18:48:06.302Z,12.80
2022-09-16T18:50:35.623Z,12.80
2022-09-16T18:53:03.888Z,12.80
2022-09-16T18:55:32.301Z,12.90
2022-09-16T18:58:00.462Z,12.80
2022-09-16T19:00:30.492Z,12.80
2022-09-16T19:02:58.674Z,12.70
2022-09-16T19:05:26.870Z,12.70
2022-09-16T19:08:05.198Z,12.70
2022-09-16T19:10:44.756Z,12.70
2022-09-16T19:13:13.380Z,12.70
2022-09-16T19:15:43.088Z,12.70
2022-09-16T19:18:17.784Z,12.60
2022-09-16T19:20:46.459Z,12.60
2022-09-16T19:23:16.335Z,12.50
2022-09-16T19:25:45.951Z,12.50
2022-09-16T19:28:14.329Z,12.50
2022-09-16T19:30:46.119Z,12.40
2022-09-16T19:33:14.353Z,12.40
2022-09-16T19:35:46.066Z,12.40
2022-09-16T19:38:14.799Z,12.40
2022-09-16T19:40:46.663Z,12.40
2022-09-16T19:43:15.889Z,12.40
2022-09-16T19:45:45.513Z,12.50
2022-09-16T19:48:15.946Z,12.50
2022-09-16T19:50:46.261Z,12.50
2022-09-16T19:53:14.855Z,12.50
2022-09-16T19:55:49.293Z,12.50
2022-09-16T19:58:19.669Z,12.50
2022-09-16T20:00:56.176Z,12.50
2022-09-16T20:10:22.817Z,12.50
2022-09-16T20:12:57.292Z,12.50
2022-09-16T20:15:27.613Z,12.50
2022-09-16T20:17:58.402Z,12.60
2022-09-16T20:20:28.981Z,12.50
2022-09-16T20:22:57.154Z,12.50
2022-09-16T20:25:25.560Z,12.50
2022-09-16T20:27:54.901Z,12.50
2022-09-16T20:30:40.206Z,12.50
2022-09-16T20:33:38.483Z,12.40
2022-09-16T20:36:12.504Z,12.50
2022-09-16T20:38:41.521Z,12.50
2022-09-16T20:41:13.652Z,12.60
2022-09-16T20:43:42.550Z,12.60
2022-09-16T20:46:12.895Z,12.50
2022-09-16T20:48:46.229Z,12.50
2022-09-16T20:51:17.992Z,12.50
2022-09-16T20:54:07.672Z,12.60
2022-09-16T20:56:39.009Z,12.60
2022-09-16T20:59:10.718Z,12.60
2022-09-16T21:01:42.164Z,12.60
2022-09-16T21:04:14.138Z,12.60
2022-09-16T21:06:44.115Z,12.60
2022-09-16T21:09:14.589Z,12.70
2022-09-16T21:11:45.215Z,12.70
2022-09-16T21:14:15.417Z,12.60
2022-09-16T21:16:45.436Z,12.60
2022-09-16T21:19:14.420Z,12.60
2022-09-16T21:21:46.465Z,12.60
2022-09-16T21:24:14.765Z,12.60
2022-09-16T21:26:44.043Z,12.60
2022-09-16T21:29:15.463Z,12.60
2022-09-16T21:31:44.418Z,12.60
2022-09-16T21:34:15.088Z,12.60
2022-09-16T21:36:45.560Z,12.70
2022-09-16T21:39:14.622Z,12.70
2022-09-16T21:41:43.201Z,12.70
2022-09-16T21:44:11.730Z,12.70
2022-09-16T21:46:43.213Z,12.70
2022-09-16T21:49:23.145Z,12.70
2022-09-16T21:51:53.821Z,12.70
2022-09-16T21:54:22.671Z,12.70
2022-09-16T21:56:51.833Z,12.70
2022-09-16T21:59:20.750Z,12.70
2022-09-16T22:01:50.278Z,12.70
2022-09-16T22:04:20.418Z,12.70
2022-09-16T22:06:49.885Z,12.70
2022-09-16T22:09:19.604Z,12.70
2022-09-16T22:11:48.309Z,12.70
2022-09-16T22:14:17.191Z,12.70
2022-09-16T22:16:45.350Z,12.60
2022-09-16T22:19:15.961Z,12.60
2022-09-16T22:21:47.440Z,12.70
2022-09-16T22:24:20.301Z,12.70
2022-09-16T22:26:52.131Z,12.70
2022-09-16T22:29:21.234Z,12.70
2022-09-16T22:31:49.934Z,12.70
2022-09-16T22:34:20.148Z,12.70
2022-09-16T22:55:25.260Z,12.70
2022-09-16T22:57:54.255Z,12.60
2022-09-16T23:00:22.430Z,12.60
2022-09-16T23:02:50.652Z,12.70
2022-09-16T23:05:22.993Z,12.70
2022-09-16T23:07:51.184Z,12.70
2022-09-16T23:10:19.484Z,12.70
2022-09-16T23:12:51.537Z,12.70
2022-09-16T23:15:20.379Z,12.50
2022-09-16T23:17:49.286Z,12.60
2022-09-16T23:20:20.560Z,12.60
2022-09-16T23:22:49.120Z,12.50
2022-09-16T23:25:17.526Z,12.60
2022-09-16T23:27:46.124Z,12.50
2022-09-16T23:30:16.124Z,12.50
2022-09-16T23:32:44.299Z,12.50
2022-09-16T23:35:14.015Z,12.60
2022-09-16T23:37:42.268Z,12.50
2022-09-16T23:40:11.378Z,12.50
2022-09-16T23:42:39.492Z,12.40
2022-09-16T23:45:08.375Z,12.40
2022-09-16T23:47:38.005Z,12.30
2022-09-16T23:50:06.800Z,12.40
2022-09-16T23:52:35.878Z,12.30
2022-09-16T23:55:04.208Z,12.40
2022-09-16T23:57:32.331Z,12.40
